Time;durP1;ratioP1;P1;durP2;ratioP2;P2;SDS_P1;SDS_P2;PMS_P1;PMS_P2;Temp;Humidity;BMP_temperature;BMP_pressure;BME280_temperature;BME280_humidity;BME280_pressure;Samples;Min_cycle;Max_cycle;Signal;HPM_P1;HPM_P2
2022/09/29 00:01:07;;;;;;;;;;;11.40;71.90;;;6.68;100.00;94082.94;4947920;28;20009;-47
2022/09/29 00:03:33;;;;;;;;;;;11.40;71.90;;;6.64;100.00;94085.34;4937461;28;20029;-47
2022/09/29 00:05:59;;;;;;;;;;;11.40;71.80;;;6.62;100.00;94081.41;4952860;28;20336;-46
2022/09/29 00:08:28;;;;;;;;;;;11.40;71.80;;;6.61;100.00;94080.63;4951986;28;19948;-47
2022/09/29 00:10:55;;;;;;;;;;;11.40;71.90;;;6.61;100.00;94079.81;4934311;28;19960;-50
2022/09/29 00:13:21;;;;;;;;;;;11.30;71.90;;;6.60;100.00;94086.16;4952175;28;19945;-47
2022/09/29 00:15:59;;;;;;;;;;;11.30;71.90;;;6.57;100.00;94089.34;4935155;28;20005;-49
2022/09/29 00:18:31;;;;;;;;;;;11.30;71.90;;;6.56;100.00;94088.56;4939071;28;20357;-47
2022/09/29 00:21:02;;;;;;;;;;;11.30;71.90;;;6.57;100.00;94090.16;4939690;28;20355;-47
2022/09/29 00:23:30;;;;;;;;;;;11.30;71.90;;;6.58;100.00;94081.16;4952957;28;19949;-47
2022/09/29 00:26:10;;;;;;;;;;;11.30;71.90;;;6.59;100.00;94076.66;4952640;28;19910;-51
2022/09/29 00:28:40;;;;;;;;;;;11.30;72.00;;;6.59;100.00;94084.59;4950376;28;19910;-47
2022/09/29 00:31:11;;;;;;;;;;;11.30;72.00;;;6.61;100.00;94083.25;4957259;28;19965;-46
2022/09/29 00:33:39;;;;;;;;;;;11.30;72.00;;;6.62;100.00;94076.09;4965004;28;19910;-46
2022/09/29 00:36:18;;;;;;;;;;;11.30;72.10;;;6.59;100.00;94071.38;4920047;28;19910;-47
2022/09/29 00:38:51;;;;;;;;;;;11.30;72.00;;;6.60;100.00;94071.06;4935730;28;19918;-47
2022/09/29 00:41:32;;;;;;;;;;;11.30;72.10;;;6.60;100.00;94079.00;4958750;28;19917;-47
2022/09/29 00:44:04;;;;;;;;;;;11.30;72.00;;;6.63;100.00;94077.69;4951745;28;19910;-47
2022/09/29 00:46:53;;;;;;;;;;;11.30;72.10;;;6.64;100.00;94072.13;4951179;28;19914;-47
2022/09/29 00:49:43;;;;;;;;;;;11.30;72.10;;;6.63;100.00;94073.16;4959934;28;20638;-46
2022/09/29 00:52:36;;;;;;;;;;;11.30;72.10;;;6.61;100.00;94070.03;4979596;28;20420;-47
2022/09/29 00:55:38;;;;;;;;;;;11.40;72.10;;;6.62;100.00;94063.66;4954965;28;20068;-50
2022/09/29 00:58:38;;;;;;;;;;;11.40;72.10;;;6.63;100.00;94064.44;4931997;28;19924;-48
2022/09/29 01:01:05;;;;;;;;;;;11.40;72.10;;;6.60;100.00;94057.06;4989483;28;19937;-49
2022/09/29 01:03:42;;;;;;;;;;;11.40;72.10;;;6.62;100.00;94049.66;4979157;28;20017;-49
2022/09/29 01:06:33;;;;;;;;;;;11.40;72.10;;;6.63;100.00;94046.72;4961671;28;19913;-49
2022/09/29 01:09:07;;;;;;;;;;;11.40;72.00;;;6.61;100.00;94037.47;4973296;28;19916;-48
2022/09/29 01:11:36;;;;;;;;;;;11.40;72.00;;;6.62;100.00;94044.34;4965067;28;19918;-52
2022/09/29 01:14:10;;;;;;;;;;;11.40;72.00;;;6.61;100.00;94053.34;4989724;28;20287;-47
2022/09/29 01:16:40;;;;;;;;;;;11.40;72.00;;;6.59;100.00;94053.63;4973789;28;19937;-50
2022/09/29 01:19:42;;;;;;;;;;;11.40;72.00;;;6.60;100.00;94062.34;4949121;28;19920;-48
2022/09/29 01:22:44;;;;;;;;;;;11.40;72.00;;;6.63;100.00;94059.16;4967121;28;19909;-49
2022/09/29 01:25:49;;;;;;;;;;;11.40;72.00;;;6.63;100.00;94049.34;4990619;28;19914;-52
2022/09/29 01:29:01;;;;;;;;;;;11.40;72.10;;;6.61;100.00;94038.28;4980485;28;19913;-51
2022/09/29 01:32:05;;;;;;;;;;;11.40;72.00;;;6.67;100.00;94049.59;4990140;28;19924;-51
2022/09/29 01:34:40;;;;;;;;;;;11.40;72.10;;;6.69;100.00;94042.19;4975091;28;19909;-48
2022/09/29 01:37:15;;;;;;;;;;;11.40;72.10;;;6.70;100.00;94043.75;4947539;29;20465;-49
2022/09/29 01:40:14;;;;;;;;;;;11.40;72.10;;;6.72;100.00;94045.06;4954770;28;20146;-50
2022/09/29 01:42:57;;;;;;;;;;;11.40;72.10;;;6.69;100.00;94053.53;4962849;28;19913;-50
2022/09/29 01:45:38;;;;;;;;;;;11.40;72.10;;;6.68;100.00;94049.31;4938560;28;19914;-47
2022/09/29 01:48:24;;;;;;;;;;;11.40;72.10;;;6.69;100.00;94050.91;4939375;28;19921;-48
2022/09/29 01:51:00;;;;;;;;;;;11.50;72.10;;;6.68;100.00;94051.19;4935124;29;19910;-48
2022/09/29 01:53:46;;;;;;;;;;;11.40;72.10;;;6.70;100.00;94049.81;4948249;29;19960;-47
2022/09/29 01:56:49;;;;;;;;;;;11.40;72.00;;;6.70;100.00;94047.19;4935609;28;19924;-47
2022/09/29 01:59:43;;;;;;;;;;;11.50;72.00;;;6.72;100.00;94042.41;4956819;28;19913;-47
2022/09/29 02:02:20;;;;;;;;;;;11.50;72.00;;;6.75;100.00;94042.94;4971148;28;20365;-47
2022/09/29 02:05:19;;;;;;;;;;;11.50;72.10;;;6.77;100.00;94046.06;4949486;28;19910;-46
2022/09/29 02:07:49;;;;;;;;;;;11.50;72.10;;;6.78;100.00;94048.44;4949178;28;19909;-47
2022/09/29 02:10:24;;;;;;;;;;;11.50;72.10;;;6.79;100.00;94047.38;4961352;28;19910;-48
2022/09/29 02:12:55;;;;;;;;;;;11.50;72.10;;;6.80;100.00;94046.31;4974238;28;20376;-47
2022/09/29 02:15:29;;;;;;;;;;;11.50;72.10;;;6.80;100.00;94050.81;4956086;28;20288;-47
2022/09/29 02:18:07;;;;;;;;;;;11.60;72.10;;;6.80;100.00;94035.75;4958064;28;20008;-48
2022/09/29 02:20:33;;;;;;;;;;;11.60;72.10;;;6.80;100.00;94029.63;4955743;28;20291;-48
2022/09/29 02:23:08;;;;;;;;;;;11.60;72.00;;;6.79;100.00;94034.16;4946709;28;19914;-47
2022/09/29 02:25:39;;;;;;;;;;;11.60;72.00;;;6.80;100.00;94025.16;4938141;28;19953;-48
2022/09/29 02:28:13;;;;;;;;;;;11.60;71.90;;;6.78;100.00;94027.28;4955841;28;20361;-48
2022/09/29 02:30:39;;;;;;;;;;;11.60;71.80;;;6.82;100.00;94030.16;4960996;23;19924;-53
2022/09/29 02:33:05;;;;;;;;;;;11.60;71.90;;;6.83;100.00;94023.78;4967254;28;20084;-45
2022/09/29 02:36:13;;;;;;;;;;;11.60;71.90;;;6.83;100.00;94029.06;4968586;28;19930;-45
2022/09/29 02:39:09;;;;;;;;;;;11.50;71.90;;;6.79;100.00;94022.78;4955037;28;19953;-45
2022/09/29 02:42:28;;;;;;;;;;;11.50;72.00;;;6.79;100.00;94017.47;4964853;28;19996;-45
2022/09/29 02:45:12;;;;;;;;;;;11.50;72.00;;;6.82;100.00;94030.16;4934441;29;20295;-50
2022/09/29 02:47:55;;;;;;;;;;;11.50;72.10;;;6.84;100.00;94033.31;4935754;29;20437;-45
2022/09/29 02:51:01;;;;;;;;;;;11.50;72.20;;;6.82;100.00;94022.22;4935808;28;19910;-45
2022/09/29 02:54:17;;;;;;;;;;;11.50;72.20;;;6.82;100.00;94017.72;4952256;28;20356;-45
2022/09/29 02:57:16;;;;;;;;;;;11.50;72.20;;;6.82;100.00;94023.00;4934506;29;20368;-45
2022/09/29 03:00:07;;;;;;;;;;;11.50;72.30;;;6.75;100.00;94025.19;4925629;29;20383;-45
2022/09/29 03:02:39;;;;;;;;;;;11.50;72.30;;;6.71;100.00;94022.31;4949657;28;19915;-45
2022/09/29 03:05:32;;;;;;;;;;;11.40;72.30;;;6.73;100.00;94022.81;4950010;28;19948;-46
2022/09/29 03:08:04;;;;;;;;;;;11.40;72.30;;;6.75;100.00;94027.06;4950300;28;19968;-46
2022/09/29 03:10:30;;;;;;;;;;;11.40;72.40;;;6.71;100.00;94016.22;4951390;28;20374;-45
2022/09/29 03:13:04;;;;;;;;;;;11.40;72.40;;;6.70;100.00;94004.06;4933664;29;19910;-45
2022/09/29 03:15:36;;;;;;;;;;;11.30;72.40;;;6.70;100.00;94001.41;4939201;28;20385;-45
2022/09/29 03:18:15;;;;;;;;;;;11.30;72.30;;;6.72;100.00;94002.72;4969202;28;20332;-45
2022/09/29 03:20:43;;;;;;;;;;;11.30;72.40;;;6.72;100.00;94015.16;4953510;28;19910;-45
2022/09/29 03:23:09;;;;;;;;;;;11.30;72.40;;;6.68;100.00;94003.56;4927805;29;19915;-49
2022/09/29 03:25:47;;;;;;;;;;;11.30;72.40;;;6.66;100.00;94006.47;4933771;29;19917;-45
2022/09/29 03:28:18;;;;;;;;;;;11.30;72.40;;;6.60;100.00;94004.94;4944193;28;19916;-47
2022/09/29 03:30:50;;;;;;;;;;;11.30;72.40;;;6.61;100.00;94000.41;4935073;28;19917;-45
2022/09/29 03:33:18;;;;;;;;;;;11.30;72.50;;;6.65;100.00;93998.81;4946368;28;20861;-45
2022/09/29 03:35:50;;;;;;;;;;;11.20;72.40;;;6.66;100.00;93995.88;4939639;28;19954;-47
2022/09/29 03:38:18;;;;;;;;;;;11.20;72.50;;;6.65;100.00;93993.53;4934851;29;19915;-45
2022/09/29 03:40:44;;;;;;;;;;;11.30;72.50;;;6.66;100.00;93993.25;4945577;28;19973;-45
2022/09/29 03:43:18;;;;;;;;;;;11.20;72.50;;;6.63;100.00;93993.78;4934976;29;20373;-45
2022/09/29 03:45:53;;;;;;;;;;;11.30;72.50;;;6.64;100.00;93994.56;4937068;28;19914;-48
2022/09/29 03:48:22;;;;;;;;;;;11.20;72.40;;;6.63;100.00;93999.09;4933335;29;19954;-51
2022/09/29 03:50:52;;;;;;;;;;;11.20;72.50;;;6.58;100.00;94001.78;4932576;28;20270;-45
2022/09/29 03:53:18;;;;;;;;;;;11.20;72.50;;;6.58;100.00;93999.16;4941422;28;20009;-45
2022/09/29 03:55:49;;;;;;;;;;;11.20;72.50;;;6.60;100.00;93997.00;4949393;28;20395;-45
2022/09/29 03:58:21;;;;;;;;;;;11.20;72.50;;;6.61;100.00;93988.00;4943422;28;19914;-46
2022/09/29 04:00:51;;;;;;;;;;;11.30;72.60;;;6.61;100.00;93997.78;4948622;28;20343;-45
2022/09/29 04:03:16;;;;;;;;;;;11.20;72.50;;;6.57;100.00;93994.91;4934550;28;19937;-45
2022/09/29 04:05:48;;;;;;;;;;;11.20;72.60;;;6.60;100.00;93990.91;4937298;28;20365;-45
2022/09/29 04:08:14;;;;;;;;;;;11.20;72.60;;;6.63;100.00;93993.00;4968308;28;19921;-45
2022/09/29 04:10:47;;;;;;;;;;;11.20;72.60;;;6.63;100.00;94000.94;4944619;28;20421;-45
2022/09/29 04:13:13;;;;;;;;;;;11.20;72.60;;;6.61;100.00;93997.78;4933984;29;20005;-45
2022/09/29 04:15:39;;;;;;;;;;;11.20;72.50;;;6.61;100.00;94003.88;4941367;28;19924;-48
2022/09/29 04:18:08;;;;;;;;;;;11.20;72.50;;;6.63;100.00;94003.59;4936903;28;19914;-45
2022/09/29 04:20:37;;;;;;;;;;;11.20;72.60;;;6.64;100.00;94003.31;4933681;29;20274;-48
2022/09/29 04:23:03;;;;;;;;;;;11.20;72.50;;;6.65;100.00;94009.41;4933334;28;19911;-45
2022/09/29 04:25:33;;;;;;;;;;;11.20;72.50;;;6.65;100.00;94007.53;4934389;29;19917;-47
2022/09/29 04:28:04;;;;;;;;;;;11.30;72.60;;;6.65;100.00;94018.13;4955840;28;19937;-46
2022/09/29 04:30:30;;;;;;;;;;;11.30;72.60;;;6.66;100.00;94011.75;4967316;28;20001;-45
2022/09/29 04:32:56;;;;;;;;;;;11.30;72.60;;;6.66;100.00;94011.75;4966930;28;20020;-56
2022/09/29 04:35:28;;;;;;;;;;;11.30;72.60;;;6.67;100.00;94015.97;4951586;28;19914;-45
2022/09/29 04:37:56;;;;;;;;;;;11.40;72.60;;;6.65;100.00;94015.47;4952727;28;20030;-51
2022/09/29 04:40:25;;;;;;;;;;;11.40;72.60;;;6.66;100.00;94016.25;4943655;28;19918;-45
2022/09/29 04:42:51;;;;;;;;;;;11.40;72.60;;;6.66;100.00;94019.69;4948246;28;19918;-46
2022/09/29 04:45:17;;;;;;;;;;;11.40;72.40;;;6.65;100.00;94017.34;4950636;28;19918;-46
2022/09/29 04:47:49;;;;;;;;;;;11.40;72.40;;;6.68;100.00;94022.09;4939438;28;19910;-46
2022/09/29 04:50:17;;;;;;;;;;;11.40;72.40;;;6.69;100.00;94019.16;4948510;28;20272;-48
2022/09/29 04:52:49;;;;;;;;;;;11.40;72.40;;;6.71;100.00;94026.81;4944117;28;19992;-45
2022/09/29 04:55:21;;;;;;;;;;;11.40;72.50;;;6.71;100.00;94029.47;4932407;29;19910;-49
2022/09/29 04:57:50;;;;;;;;;;;11.40;72.60;;;6.72;100.00;94031.81;4919616;29;20393;-45
2022/09/29 05:00:18;;;;;;;;;;;11.40;72.60;;;6.68;100.00;94025.50;4932524;29;19911;-46
2022/09/29 05:02:44;;;;;;;;;;;11.40;72.60;;;6.68;100.00;94025.50;4931811;29;19914;-46
2022/09/29 05:05:11;;;;;;;;;;;11.40;72.60;;;6.69;100.00;94031.59;4964968;28;19921;-46
2022/09/29 05:07:41;;;;;;;;;;;11.30;72.50;;;6.70;100.00;94026.00;4952633;29;19914;-48
2022/09/29 05:10:08;;;;;;;;;;;11.30;72.50;;;6.70;100.00;94027.88;4971468;28;20288;-48
2022/09/29 05:12:45;;;;;;;;;;;11.30;72.50;;;6.71;100.00;94032.13;4935232;28;19911;-46
2022/09/29 05:15:19;;;;;;;;;;;11.30;72.60;;;6.69;100.00;94029.72;4949069;28;19910;-44
2022/09/29 05:17:44;;;;;;;;;;;11.30;72.60;;;6.69;100.00;94028.94;4946798;29;19910;-46
2022/09/29 05:20:15;;;;;;;;;;;11.30;72.60;;;6.69;100.00;94032.38;4942833;29;19910;-46
2022/09/29 05:22:41;;;;;;;;;;;11.30;72.60;;;6.70;100.00;94033.94;4943753;28;19910;-45
2022/09/29 05:25:10;;;;;;;;;;;11.30;72.60;;;6.71;100.00;94034.75;4943512;29;19910;-45
2022/09/29 05:27:39;;;;;;;;;;;11.30;72.60;;;6.72;100.00;94036.31;4950047;28;19910;-45
2022/09/29 05:30:06;;;;;;;;;;;11.30;72.60;;;6.70;100.00;94036.59;4937545;29;20319;-48
2022/09/29 05:32:31;;;;;;;;;;;11.30;72.60;;;6.72;100.00;94042.41;4950729;28;20400;-46
2022/09/29 05:34:58;;;;;;;;;;;11.30;72.60;;;6.73;100.00;94046.63;4949824;28;19914;-45
2022/09/29 05:37:24;;;;;;;;;;;11.30;72.60;;;6.74;100.00;94044.78;4941290;28;19914;-48
2022/09/29 05:39:49;;;;;;;;;;;11.30;72.70;;;6.75;100.00;94043.72;4936922;28;20309;-51
2022/09/29 05:42:15;;;;;;;;;;;11.40;72.70;;;6.75;100.00;94043.72;4871083;28;20379;-48
2022/09/29 05:44:41;;;;;;;;;;;11.40;72.70;;;6.76;100.00;94041.84;4971659;28;19918;-47
2022/09/29 05:47:07;;;;;;;;;;;11.40;72.60;;;6.77;100.00;94040.78;4973280;28;19976;-49
2022/09/29 05:49:33;;;;;;;;;;;11.40;72.70;;;6.75;100.00;94051.66;4986194;28;19914;-47
2022/09/29 05:52:02;;;;;;;;;;;11.40;72.60;;;6.77;100.00;94044.22;4982042;28;19913;-45
2022/09/29 05:54:30;;;;;;;;;;;11.40;72.60;;;6.79;100.00;94049.25;4975166;28;19996;-47
2022/09/29 05:56:56;;;;;;;;;;;11.40;72.70;;;6.79;100.00;94051.88;4973094;28;19964;-54
2022/09/29 05:59:25;;;;;;;;;;;11.40;72.70;;;6.79;100.00;94050.03;4964871;28;20373;-47
2022/09/29 06:01:51;;;;;;;;;;;11.50;72.70;;;6.80;100.00;94048.97;4973502;28;19938;-46
2022/09/29 06:04:19;;;;;;;;;;;11.40;72.60;;;6.84;100.00;94057.16;4978151;28;20019;-46
2022/09/29 06:06:52;;;;;;;;;;;11.50;72.70;;;6.86;100.00;94052.34;4988367;28;19918;-45
2022/09/29 06:09:21;;;;;;;;;;;11.50;72.70;;;6.88;100.00;94061.59;4973888;28;19941;-45
2022/09/29 06:11:46;;;;;;;;;;;11.50;72.70;;;6.91;100.00;94055.75;4961508;28;19910;-48
2022/09/29 06:14:12;;;;;;;;;;;11.50;72.70;;;6.93;100.00;94056.25;4973200;28;19916;-51
2022/09/29 06:16:41;;;;;;;;;;;11.60;72.80;;;6.94;100.00;94057.06;4984562;28;20396;-46
2022/09/29 06:19:15;;;;;;;;;;;11.60;72.70;;;6.98;100.00;94063.34;4972138;28;19918;-48
2022/09/29 06:21:45;;;;;;;;;;;11.70;72.80;;;7.02;100.00;94069.69;4962836;28;20376;-49
2022/09/29 06:24:22;;;;;;;;;;;11.70;72.70;;;7.04;100.00;94056.16;4966564;28;19914;-45
2022/09/29 06:26:47;;;;;;;;;;;11.70;72.60;;;7.07;100.00;94066.97;4954214;28;19945;-48
2022/09/29 06:29:14;;;;;;;;;;;11.80;72.60;;;7.09;100.00;94056.91;4966480;28;19949;-51
2022/09/29 06:31:42;;;;;;;;;;;11.80;72.70;;;7.12;100.00;94053.72;4971673;28;19952;-46
2022/09/29 06:34:09;;;;;;;;;;;11.80;72.60;;;7.09;100.00;94051.63;4971445;28;19956;-54
2022/09/29 06:39:29;;;;;;;;;;;11.90;72.40;;;7.10;100.00;94058.47;4987863;28;19960;-48
2022/09/29 06:42:04;;;;;;;;;;;11.90;72.40;;;7.09;100.00;94059.56;4993176;28;19917;-48
2022/09/29 06:44:30;;;;;;;;;;;11.90;72.30;;;7.10;100.00;94050.53;4993657;28;19909;-46
2022/09/29 06:46:59;;;;;;;;;;;11.90;72.30;;;7.11;100.00;94064.56;4983371;28;20004;-47
2022/09/29 06:49:28;;;;;;;;;;;11.90;72.30;;;7.15;100.00;94061.09;4958000;28;20012;-49
2022/09/29 06:51:54;;;;;;;;;;;12.00;72.30;;;7.17;100.00;94058.16;4982468;28;19937;-46
2022/09/29 06:54:25;;;;;;;;;;;12.00;72.30;;;7.17;100.00;94058.94;4987658;28;20014;-55
2022/09/29 06:56:52;;;;;;;;;;;12.00;72.20;;;7.18;100.00;94062.41;4993489;28;19931;-45
2022/09/29 06:59:18;;;;;;;;;;;12.00;72.20;;;7.22;100.00;94060.75;4989471;28;19913;-44
2022/09/29 07:01:50;;;;;;;;;;;12.00;72.20;;;7.28;100.00;94062.28;5008053;28;19909;-48
2022/09/29 07:04:19;;;;;;;;;;;12.10;72.20;;;7.31;100.00;94061.72;4983800;28;20284;-45
2022/09/29 07:06:45;;;;;;;;;;;12.10;72.10;;;7.38;100.00;94061.41;4984317;28;19963;-47
2022/09/29 07:09:14;;;;;;;;;;;12.20;72.10;;;7.37;100.00;94057.97;4989185;28;19913;-53
2022/09/29 07:11:50;;;;;;;;;;;12.20;72.10;;;7.35;100.00;94052.16;4982719;28;19909;-54
2022/09/29 07:14:22;;;;;;;;;;;12.30;72.10;;;7.36;100.00;94056.41;4992082;28;19916;-55
2022/09/29 07:16:49;;;;;;;;;;;12.40;72.00;;;7.41;100.00;94061.63;4989874;28;19916;-53
2022/09/29 07:19:16;;;;;;;;;;;12.40;72.00;;;7.41;100.00;94066.13;4993008;28;20019;-54
2022/09/29 07:21:48;;;;;;;;;;;12.50;71.90;;;7.42;100.00;94068.50;5001740;28;19917;-54
2022/09/29 07:24:23;;;;;;;;;;;12.50;71.80;;;7.50;100.00;94075.03;4967134;28;20407;-56
2022/09/29 07:26:49;;;;;;;;;;;12.50;71.70;;;7.56;100.00;94083.75;4986040;28;19917;-53
2022/09/29 07:29:15;;;;;;;;;;;12.60;71.70;;;7.62;100.00;94082.63;4960035;28;19913;-55
2022/09/29 07:31:42;;;;;;;;;;;12.60;71.70;;;7.60;100.00;94084.75;4984968;28;19917;-55
2022/09/29 07:34:08;;;;;;;;;;;12.70;71.70;;;7.61;100.00;94079.16;4971277;28;19941;-56
2022/09/29 07:36:37;;;;;;;;;;;12.70;71.60;;;7.58;99.97;94081.56;4984002;28;20460;-51
2022/09/29 07:39:03;;;;;;;;;;;12.80;71.50;;;7.54;100.00;94078.69;4972213;28;19918;-51
2022/09/29 07:41:29;;;;;;;;;;;12.80;71.40;;;7.68;100.00;94088.63;4956306;28;19916;-51
2022/09/29 07:43:54;;;;;;;;;;;12.80;71.30;;;7.67;100.00;94087.06;4955877;28;19914;-50
2022/09/29 07:46:23;;;;;;;;;;;12.90;71.20;;;7.80;100.00;94083.72;4969249;28;20001;-50
2022/09/29 07:48:49;;;;;;;;;;;13.00;71.20;;;7.86;100.00;94093.19;4953862;28;19996;-55
2022/09/29 07:51:18;;;;;;;;;;;13.10;71.20;;;7.78;99.57;94099.91;4953669;28;20000;-55
2022/09/29 07:53:50;;;;;;;;;;;13.10;71.00;;;7.87;99.05;94103.53;4971802;28;20052;-52
2022/09/29 07:56:21;;;;;;;;;;;13.10;70.90;;;7.92;99.30;94105.31;4987519;28;19910;-55
2022/09/29 07:58:56;;;;;;;;;;;13.20;71.00;;;8.07;99.43;94109.66;4968569;28;20001;-50
2022/09/29 08:01:25;;;;;;;;;;;13.30;71.00;;;8.15;98.62;94117.00;4978602;28;19914;-51
2022/09/29 08:03:54;;;;;;;;;;;13.40;71.00;;;8.26;98.52;94112.34;4965882;28;20288;-56
2022/09/29 08:06:23;;;;;;;;;;;13.50;71.00;;;8.37;98.56;94108.47;4964771;28;19959;-53
2022/09/29 08:08:50;;;;;;;;;;;13.60;70.90;;;8.34;96.44;94109.06;4970104;28;19910;-50
2022/09/29 08:11:22;;;;;;;;;;;13.80;70.80;;;8.23;94.39;94107.59;4975975;28;19910;-56
2022/09/29 08:13:56;;;;;;;;;;;13.80;70.40;;;8.35;95.59;94114.06;4952309;28;19910;-53
2022/09/29 08:16:31;;;;;;;;;;;13.90;70.30;;;8.42;95.88;94112.94;4982956;28;19920;-56
2022/09/29 08:18:59;;;;;;;;;;;14.00;70.30;;;8.35;94.02;94115.94;4987399;28;19918;-51
2022/09/29 08:21:25;;;;;;;;;;;14.00;70.00;;;8.43;93.26;94117.16;4971181;28;19921;-50
2022/09/29 08:23:52;;;;;;;;;;;14.10;70.00;;;8.33;93.54;94123.38;4972212;28;19909;-50
2022/09/29 08:26:22;;;;;;;;;;;14.10;69.80;;;8.46;94.00;94122.72;4987707;28;19910;-51
2022/09/29 08:28:48;;;;;;;;;;;14.10;69.60;;;8.46;93.71;94125.38;4967469;28;19956;-52
2022/09/29 08:31:20;;;;;;;;;;;14.20;69.60;;;8.54;93.33;94124.72;4987447;23;19953;-49
2022/09/29 08:33:50;;;;;;;;;;;14.30;69.60;;;8.62;93.52;94125.13;5004289;28;19925;-51
2022/09/29 08:36:19;;;;;;;;;;;14.40;69.50;;;8.72;92.51;94135.63;4991386;28;19915;-48
2022/09/29 08:38:48;;;;;;;;;;;14.40;69.40;;;8.76;92.76;94141.94;4990511;28;19917;-50
2022/09/29 08:41:59;;;;;;;;;;;14.50;69.40;;;8.83;92.16;94139.69;4973661;28;19985;-50
2022/09/29 08:45:00;;;;;;;;;;;14.50;69.20;;;8.89;93.12;94146.50;5008773;28;19919;-48
2022/09/29 08:47:42;;;;;;;;;;;14.60;69.10;;;9.02;92.53;94143.16;4987904;28;20017;-50
2022/09/29 08:50:32;;;;;;;;;;;14.70;69.20;;;9.10;91.38;94146.22;5009422;28;19944;-49
2022/09/29 08:53:08;;;;;;;;;;;14.80;69.20;;;9.10;91.06;94147.00;4991723;28;19996;-49
2022/09/29 08:56:00;;;;;;;;;;;14.80;68.90;;;9.25;91.65;94156.63;4993699;28;19948;-50
2022/09/29 08:58:26;;;;;;;;;;;14.90;68.90;;;9.14;89.84;94155.97;4992094;28;19917;-48
2022/09/29 09:01:26;;;;;;;;;;;15.00;68.90;;;9.15;90.34;94160.22;4971367;28;20002;-48
2022/09/29 09:04:26;;;;;;;;;;;15.00;69.10;;;9.26;90.01;94166.94;5006944;28;19909;-48
2022/09/29 09:07:20;;;;;;;;;;;15.10;68.70;;;9.42;90.94;94164.81;4991667;28;19923;-48
2022/09/29 09:10:37;;;;;;;;;;;15.20;68.70;;;9.65;90.10;94168.44;4976965;28;20015;-50
2022/09/29 09:13:44;;;;;;;;;;;15.40;68.70;;;9.88;90.47;94166.69;4923490;29;20378;-51
2022/09/29 09:16:25;;;;;;;;;;;15.70;68.60;;;10.12;89.66;94171.84;4941108;28;19920;-49
2022/09/29 09:19:18;;;;;;;;;;;15.90;68.30;;;10.24;87.09;94168.66;4952845;28;20000;-50
2022/09/29 09:22:04;;;;;;;;;;;16.30;68.10;;;10.44;87.80;94177.38;4951704;28;20289;-48
2022/09/29 09:24:54;;;;;;;;;;;16.50;67.60;;;10.63;87.77;94178.03;4953289;28;19976;-48
2022/09/29 09:27:30;;;;;;;;;;;16.60;67.40;;;10.82;86.85;94178.69;4952567;28;20412;-47
2022/09/29 09:30:18;;;;;;;;;;;16.80;67.30;;;10.98;84.55;94176.47;4924043;29;19915;-48
2022/09/29 09:33:04;;;;;;;;;;;17.00;67.20;;;11.05;83.72;94173.41;4928979;28;19918;-51
2022/09/29 09:35:57;;;;;;;;;;;17.20;66.80;;;11.21;83.40;94179.16;4953334;28;20312;-48
2022/09/29 09:39:00;;;;;;;;;;;17.40;66.70;;;11.43;83.82;94173.84;4953586;28;20495;-48
2022/09/29 09:41:34;;;;;;;;;;;17.50;66.50;;;11.52;84.09;94177.34;4951341;28;19925;-48
2022/09/29 09:44:10;;;;;;;;;;;17.60;66.40;;;11.50;82.97;94174.22;4986691;28;19909;-50
2022/09/29 09:46:48;;;;;;;;;;;17.70;66.30;;;11.51;77.46;94177.66;5003960;28;19910;-49
2022/09/29 09:49:27;;;;;;;;;;;17.70;66.40;;;11.53;77.86;94173.59;4990075;28;19968;-52
2022/09/29 09:52:04;;;;;;;;;;;17.80;65.60;;;11.56;77.48;94175.66;4980129;28;20422;-52
2022/09/29 09:55:00;;;;;;;;;;;17.90;65.40;;;11.68;82.94;94179.63;4994557;28;19952;-48
2022/09/29 09:58:05;;;;;;;;;;;18.00;65.20;;;11.78;82.37;94182.84;5003962;28;20438;-50
2022/09/29 10:00:50;;;;;;;;;;;18.00;65.20;;;11.84;83.20;94175.47;4974908;28;19921;-48
2022/09/29 10:03:16;;;;;;;;;;;18.10;66.20;;;11.89;81.38;94183.41;4995146;28;19913;-48
2022/09/29 10:05:48;;;;;;;;;;;18.20;65.40;;;11.86;79.91;94180.56;5009297;28;19935;-47
2022/09/29 10:08:38;;;;;;;;;;;18.20;65.10;;;11.90;81.21;94184.97;4994456;28;19909;-47
2022/09/29 10:11:30;;;;;;;;;;;18.20;65.20;;;11.95;80.96;94187.50;4992828;28;19952;-48
2022/09/29 10:14:26;;;;;;;;;;;18.20;65.10;;;11.95;79.21;94182.16;5009100;28;19913;-48
2022/09/29 10:17:14;;;;;;;;;;;18.30;65.00;;;12.12;80.73;94186.78;4991639;28;20279;-48
2022/09/29 10:20:06;;;;;;;;;;;18.40;64.90;;;12.19;80.20;94181.81;5008660;28;19952;-48
2022/09/29 10:22:33;;;;;;;;;;;18.50;64.70;;;12.28;79.59;94173.81;5008324;28;19909;-51
2022/09/29 10:25:17;;;;;;;;;;;18.70;64.60;;;12.46;79.63;94180.00;5008967;28;19909;-47
2022/09/29 10:27:52;;;;;;;;;;;18.80;64.30;;;12.70;83.30;94177.72;5007442;28;19916;-49
2022/09/29 10:30:36;;;;;;;;;;;19.10;64.30;;;12.64;76.34;94178.97;4992357;28;19917;-49
2022/09/29 10:33:12;;;;;;;;;;;19.40;64.00;;;12.72;75.92;94182.75;4979374;28;19917;-48
2022/09/29 10:35:47;;;;;;;;;;;19.50;63.90;;;12.69;79.65;94189.50;4992391;28;19916;-47
2022/09/29 10:38:26;;;;;;;;;;;19.50;63.60;;;12.83;79.71;94189.38;5008791;28;19944;-48
2022/09/29 10:41:05;;;;;;;;;;;19.60;63.50;;;12.99;80.12;94187.03;4990556;28;19910;-50
2022/09/29 10:43:43;;;;;;;;;;;19.60;63.50;;;13.02;77.32;94191.75;5008751;28;20332;-49
2022/09/29 10:46:54;;;;;;;;;;;19.70;63.60;;;13.01;73.94;94189.41;5002017;28;19913;-50
2022/09/29 10:49:28;;;;;;;;;;;19.80;63.40;;;13.16;76.51;94186.25;4993541;28;19936;-48
2022/09/29 10:52:15;;;;;;;;;;;19.90;63.20;;;13.10;73.36;94193.66;5001061;28;19956;-48
2022/09/29 10:55:22;;;;;;;;;;;20.00;63.00;;;13.01;72.90;94184.84;5003140;28;20011;-51
2022/09/29 10:57:55;;;;;;;;;;;20.20;62.50;;;13.30;76.55;94186.13;4925600;28;20483;-48
2022/09/29 11:00:39;;;;;;;;;;;20.30;62.30;;;13.40;71.77;94183.13;4978314;28;19924;-47
2022/09/29 11:03:26;;;;;;;;;;;20.50;62.00;;;13.53;69.80;94192.09;4991734;28;20008;-51
2022/09/29 11:06:08;;;;;;;;;;;20.50;61.60;;;13.53;70.24;94186.75;4994327;28;20008;-48
2022/09/29 11:09:14;;;;;;;;;;;20.50;61.50;;;13.54;68.74;94188.34;5011717;28;19917;-48
2022/09/29 11:12:02;;;;;;;;;;;20.50;61.00;;;13.58;66.10;94195.41;4995239;28;19924;-51
2022/09/29 11:14:36;;;;;;;;;;;20.70;60.80;;;13.79;66.97;94200.09;5027657;28;19913;-48
2022/09/29 11:17:48;;;;;;;;;;;20.80;61.40;;;13.88;66.35;94196.31;5010529;28;19999;-48
2022/09/29 11:20:14;;;;;;;;;;;21.00;60.50;;;14.07;66.16;94198.63;4994594;28;19945;-49
2022/09/29 11:22:52;;;;;;;;;;;21.10;60.40;;;14.05;64.23;94203.50;5000356;28;19917;-47
2022/09/29 11:25:52;;;;;;;;;;;21.20;60.10;;;13.91;65.00;94196.75;5011193;28;19909;-47
2022/09/29 11:28:33;;;;;;;;;;;21.20;59.80;;;13.96;66.65;94202.72;4999901;28;20326;-48
2022/09/29 11:31:46;;;;;;;;;;;21.20;59.70;;;13.99;65.00;94196.72;5010444;28;19959;-48
2022/09/29 11:35:12;;;;;;;;;;;21.30;59.50;;;14.23;63.73;94206.91;4991902;28;20116;-48
2022/09/29 11:38:27;;;;;;;;;;;21.40;59.40;;;14.42;65.58;94200.38;4997640;28;19909;-51
2022/09/29 11:41:36;;;;;;;;;;;21.60;59.20;;;14.87;61.58;94192.59;5005298;28;19913;-48
2022/09/29 11:44:49;;;;;;;;;;;22.20;59.00;;;15.30;65.49;94206.84;4978074;28;19916;-48
2022/09/29 11:47:39;;;;;;;;;;;22.90;58.70;;;15.63;62.82;94206.88;4968704;28;19912;-48
2022/09/29 11:50:11;;;;;;;;;;;23.30;58.50;;;15.53;55.25;94201.91;4984583;28;19943;-50
2022/09/29 11:53:13;;;;;;;;;;;23.50;57.90;;;15.43;56.62;94195.81;4997903;28;19931;-49
2022/09/29 11:56:16;;;;;;;;;;;23.50;57.50;;;15.46;59.82;94199.75;5012048;28;19975;-48
2022/09/29 11:59:21;;;;;;;;;;;23.60;56.90;;;15.73;61.65;94201.91;4995488;28;19913;-49
2022/09/29 12:02:26;;;;;;;;;;;23.70;56.60;;;15.92;58.08;94188.00;5006213;28;19944;-49
2022/09/29 12:05:51;;;;;;;;;;;24.00;56.40;;;16.32;56.94;94184.69;4999773;28;19932;-49
2022/09/29 12:08:52;;;;;;;;;;;24.20;56.70;;;16.23;57.31;94183.22;4931981;29;19918;-48
2022/09/29 12:12:15;;;;;;;;;;;24.40;55.80;;;16.38;55.25;94190.63;4911089;29;19966;-51